Time;durP1;ratioP1;P1;durP2;ratioP2;P2;SDS_P1;SDS_P2;PMS_P1;PMS_P2;Temp;Humidity;BMP_temperature;BMP_pressure;BME280_temperature;BME280_humidity;BME280_pressure;Samples;Min_cycle;Max_cycle;Signal;HPM_P1;HPM_P2
2022/01/01 00:04:22;;;;;;;30.15;14.77;;;;;;;5.06;100.00;95173.00;10407664;28;20031;-72
2022/01/01 00:09:22;;;;;;;23.52;11.27;;;;;;;5.12;100.00;95177.41;10440615;28;20445;-78
2022/01/01 00:14:23;;;;;;;22.10;10.48;;;;;;;5.11;100.00;95178.47;10440007;28;20041;-72
2022/01/01 00:19:23;;;;;;;22.30;11.10;;;;;;;5.11;100.00;95176.59;10439248;28;20040;-74
2022/01/01 00:24:24;;;;;;;16.83;9.57;;;;;;;5.00;100.00;95169.41;10441616;28;20025;-69
2022/01/01 00:29:24;;;;;;;25.33;12.02;;;;;;;4.95;100.00;95167.41;10438554;28;20033;-75
2022/01/01 00:34:25;;;;;;;26.88;13.82;;;;;;;4.94;100.00;95162.31;10439659;28;20037;-75
2022/01/01 00:39:25;;;;;;;30.88;14.10;;;;;;;4.80;100.00;95159.03;10403898;22;20053;-74
2022/01/01 00:44:30;;;;;;;34.53;15.98;;;;;;;4.64;100.00;95167.66;10357533;28;20034;-75
2022/01/01 00:49:30;;;;;;;26.88;12.88;;;;;;;4.56;100.00;95171.41;10357907;28;20038;-71
2022/01/01 00:54:31;;;;;;;30.85;14.50;;;;;;;4.50;100.00;95167.00;10372052;28;20042;-74
2022/01/01 00:59:31;;;;;;;29.27;15.40;;;;;;;4.48;100.00;95145.94;10378030;28;20547;-70
2022/01/01 01:04:32;;;;;;;33.22;15.10;;;;;;;4.37;100.00;95142.19;10350065;28;20030;-73
2022/01/01 01:09:32;;;;;;;45.50;20.35;;;;;;;4.21;100.00;95134.78;10365360;28;20061;-70
2022/01/01 01:14:40;;;;;;;39.58;18.27;;;;;;;4.26;100.00;95122.44;10356430;28;20459;-77
2022/01/01 01:19:40;;;;;;;35.07;16.63;;;;;;;4.13;100.00;95125.28;10348863;28;20037;-72
2022/01/01 01:24:40;;;;;;;33.35;17.67;;;;;;;4.07;100.00;95136.78;10331549;28;20022;-74
2022/01/01 01:29:43;;;;;;;39.83;17.92;;;;;;;3.97;100.00;95139.97;10348749;28;20025;-69
2022/01/01 01:34:44;;;;;;;38.60;17.92;;;;;;;3.87;100.00;95137.81;10348218;28;20636;-70
2022/01/01 01:39:44;;;;;;;37.65;16.70;;;;;;;3.84;100.00;95138.28;10365735;28;20165;-70
2022/01/01 01:44:47;;;;;;;34.17;17.80;;;;;;;3.68;100.00;95160.13;10365761;28;20534;-71
2022/01/01 01:49:48;;;;;;;47.13;18.33;;;;;;;3.53;100.00;95158.63;10332142;28;20121;-70
2022/01/01 01:54:48;;;;;;;70.30;29.98;;;;;;;3.37;100.00;95159.16;10347529;28;20040;-70
2022/01/01 01:59:51;;;;;;;69.72;31.42;;;;;;;3.25;100.00;95151.06;10347307;28;20030;-71
2022/01/01 02:04:51;;;;;;;63.53;28.65;;;;;;;3.25;100.00;95149.25;10347253;28;20033;-69
2022/01/01 02:09:52;;;;;;;51.05;22.55;;;;;;;3.26;100.00;95158.00;10346097;28;20035;-69
2022/01/01 02:20:02;;;;;;;50.88;22.27;;;;;;;3.37;100.00;95149.34;10364245;28;20034;-73
2022/01/01 02:25:05;;;;;;;48.30;20.00;;;;;;;3.40;100.00;95132.97;10345326;28;20470;-74
2022/01/01 02:30:08;;;;;;;49.08;20.70;;;;;;;3.45;100.00;95134.97;10330071;28;20113;-73
2022/01/01 02:35:11;;;;;;;49.92;22.45;;;;;;;3.63;100.00;95141.34;10364063;28;20033;-69
2022/01/01 02:40:14;;;;;;;51.10;23.58;;;;;;;3.55;100.00;95121.19;10329268;28;20121;-69
2022/01/01 02:45:15;;;;;;;57.13;24.77;;;;;;;3.61;100.00;95111.53;10345792;28;20073;-74
2022/01/01 02:50:18;;;;;;;53.55;22.15;;;;;;;3.54;100.00;95109.72;10362966;28;20124;-69
2022/01/01 02:55:19;;;;;;;47.05;21.90;;;;;;;3.59;100.00;95119.72;10370207;28;20038;-72
2022/01/01 03:00:19;;;;;;;55.67;25.08;;;;;;;3.55;100.00;95103.38;10344932;28;20033;-72
2022/01/01 03:05:20;;;;;;;51.33;22.08;;;;;;;3.47;100.00;95106.31;10362432;28;20033;-69
2022/01/01 03:10:20;;;;;;;56.28;24.30;;;;;;;3.55;100.00;95098.06;10344072;28;20472;-70
2022/01/01 03:15:21;;;;;;;40.63;15.93;;;;;;;3.68;100.00;95086.50;10344913;28;20087;-74
2022/01/01 03:20:21;;;;;;;35.47;16.17;;;;;;;3.74;100.00;95084.78;10342805;28;20052;-74
2022/01/01 03:25:22;;;;;;;33.00;15.40;;;;;;;3.74;100.00;95098.09;10344085;28;20117;-75
2022/01/01 03:30:22;;;;;;;42.25;19.58;;;;;;;3.75;100.00;95097.06;10344026;28;20041;-72
2022/01/01 03:35:23;;;;;;;35.30;15.43;;;;;;;3.87;100.00;95084.66;10343383;28;20034;-75
2022/01/01 03:40:23;;;;;;;28.27;14.13;;;;;;;3.99;100.00;95089.22;10343368;28;20061;-75
2022/01/01 03:45:24;;;;;;;27.63;13.60;;;;;;;4.11;100.00;95090.09;10361128;28;20415;-72
2022/01/01 03:50:24;;;;;;;30.80;13.70;;;;;;;4.21;100.00;95095.69;10343309;28;20463;-69
2022/01/01 03:55:25;;;;;;;30.00;12.80;;;;;;;4.19;100.00;95103.09;10343010;28;20030;-70
2022/01/01 04:00:26;;;;;;;30.63;12.65;;;;;;;4.25;100.00;95091.53;10360658;28;20037;-69
2022/01/01 04:05:26;;;;;;;35.10;13.80;;;;;;;4.06;100.00;95063.34;10342284;28;20026;-69
2022/01/01 04:10:29;;;;;;;31.83;15.20;;;;;;;4.07;100.00;95060.47;10302131;28;20124;-75
2022/01/01 04:15:30;;;;;;;34.00;15.18;;;;;;;3.95;100.00;95062.28;10302347;28;20029;-73
2022/01/01 04:20:31;;;;;;;35.50;14.55;;;;;;;3.97;100.00;95056.72;10301757;28;20034;-77
2022/01/01 04:25:31;;;;;;;36.20;16.95;;;;;;;4.06;100.00;95050.06;10301693;28;20404;-70
2022/01/01 04:30:32;;;;;;;35.15;16.40;;;;;;;3.98;100.00;95045.03;10286125;28;20022;-74
2022/01/01 04:35:32;;;;;;;36.33;17.27;;;;;;;4.00;100.00;95049.09;10325297;28;20035;-70
2022/01/01 04:40:33;;;;;;;33.15;16.30;;;;;;;4.06;100.00;95040.25;10348230;28;20045;-74
2022/01/01 04:45:33;;;;;;;38.90;16.75;;;;;;;4.11;100.00;95034.25;10349746;28;20141;-70
2022/01/01 04:50:34;;;;;;;33.47;13.95;;;;;;;4.06;100.00;95031.44;10367923;28;20029;-69
2022/01/01 04:55:34;;;;;;;33.13;15.27;;;;;;;4.06;100.00;95034.09;10390537;28;20108;-72
2022/01/01 05:00:35;;;;;;;39.05;15.40;;;;;;;4.15;100.00;95029.31;10408144;28;20108;-69
2022/01/01 05:05:35;;;;;;;35.58;14.15;;;;;;;4.20;100.00;95029.41;10408179;28;20567;-75
2022/01/01 05:10:35;;;;;;;28.33;13.50;;;;;;;4.24;100.00;95039.41;10389484;28;20022;-70
2022/01/01 05:15:36;;;;;;;33.28;14.48;;;;;;;4.28;100.00;95053.88;10411544;28;20030;-74
2022/01/01 05:20:37;;;;;;;34.22;14.07;;;;;;;4.28;100.00;95069.00;10407410;28;20022;-70
2022/01/01 05:25:37;;;;;;;27.05;13.13;;;;;;;4.34;100.00;95077.94;10389009;28;20484;-71
2022/01/01 05:30:37;;;;;;;35.17;14.13;;;;;;;4.34;100.00;95091.25;10388795;28;20073;-71
2022/01/01 05:35:38;;;;;;;33.47;14.88;;;;;;;4.25;100.00;95088.09;10388694;28;20580;-72
2022/01/01 05:40:38;;;;;;;31.75;14.52;;;;;;;4.19;100.00;95097.78;10388473;28;20029;-73
2022/01/01 05:45:42;;;;;;;33.38;14.30;;;;;;;4.25;100.00;95098.72;10387483;28;20028;-73
2022/01/01 05:50:42;;;;;;;27.25;13.50;;;;;;;4.24;100.00;95092.59;10406162;28;20025;-73
2022/01/01 05:55:43;;;;;;;40.83;15.98;;;;;;;3.94;100.00;95097.88;10388226;28;20021;-73
2022/01/01 06:00:44;;;;;;;33.85;16.05;;;;;;;3.70;100.00;95100.38;10387646;28;20048;-70
2022/01/01 06:05:45;;;;;;;32.28;15.57;;;;;;;3.81;100.00;95090.88;10388345;28;20022;-70
2022/01/01 06:10:46;;;;;;;33.35;14.60;;;;;;;3.75;100.00;95091.75;10404911;28;20105;-75
2022/01/01 06:15:46;;;;;;;37.50;14.60;;;;;;;3.72;100.00;95079.69;10387282;28;20510;-70
2022/01/01 06:20:46;;;;;;;32.10;14.50;;;;;;;3.70;100.00;95087.09;10387376;28;20033;-69
2022/01/01 06:25:47;;;;;;;41.08;17.30;;;;;;;3.99;100.00;95086.56;10388556;28;20491;-73
2022/01/01 06:30:47;;;;;;;39.70;15.38;;;;;;;3.99;100.00;95083.91;10401330;28;20145;-76
2022/01/01 06:35:51;;;;;;;31.42;12.85;;;;;;;4.15;100.00;95074.53;10323659;28;20026;-71
2022/01/01 06:40:51;;;;;;;31.05;13.15;;;;;;;4.22;100.00;95092.00;10349709;28;20349;-76
2022/01/01 06:45:52;;;;;;;28.83;15.30;;;;;;;4.46;100.00;95100.09;10328230;28;20022;-71
2022/01/01 06:50:52;;;;;;;29.40;14.25;;;;;;;4.82;100.00;95116.19;10351094;28;20048;-75
2022/01/01 06:55:56;;;;;;;28.08;13.20;;;;;;;5.11;100.00;95114.53;10319086;28;20025;-79
2022/01/01 07:00:56;;;;;;;28.52;13.45;;;;;;;5.28;100.00;95114.66;10361949;28;20026;-75
2022/01/01 07:05:57;;;;;;;31.27;13.70;;;;;;;5.24;100.00;95100.97;10344571;28;20025;-75
2022/01/01 07:10:57;;;;;;;29.98;13.70;;;;;;;5.36;100.00;95090.34;10347045;28;20030;-77
2022/01/01 07:15:58;;;;;;;22.80;12.38;;;;;;;5.64;100.00;95102.16;10359284;28;20168;-72
2022/01/01 07:20:58;;;;;;;25.20;12.30;;;;;;;5.82;100.00;95117.22;10357531;28;20045;-72
2022/01/01 07:25:59;;;;;;;28.42;12.18;;;;;;;5.97;100.00;95112.25;10342205;28;20032;-72
2022/01/01 07:30:59;;;;;;;22.27;11.70;;;;;;;6.04;100.00;95112.13;10344030;28;20038;-75
2022/01/01 07:36:00;;;;;;;22.45;11.48;;;;;;;5.92;100.00;95105.97;10360122;28;20053;-71
2022/01/01 07:41:00;;;;;;;24.58;12.20;;;;;;;5.97;100.00;95108.72;10342311;28;20037;-74
2022/01/01 07:46:01;;;;;;;26.42;12.43;;;;;;;6.09;100.00;95122.09;10326212;28;20037;-76
2022/01/01 07:51:01;;;;;;;28.08;13.07;;;;;;;6.24;100.00;95127.72;10358759;28;20032;-82
2022/01/01 07:56:02;;;;;;;24.52;12.50;;;;;;;6.49;100.00;95118.63;10354290;28;20069;-78
2022/01/01 08:01:03;;;;;;;23.17;12.80;;;;;;;6.75;100.00;95101.19;10318233;28;20034;-78
2022/01/01 08:06:03;;;;;;;29.83;13.95;;;;;;;7.11;100.00;95091.13;10316454;28;20031;-75
2022/01/01 08:11:04;;;;;;;30.23;13.60;;;;;;;7.92;100.00;95086.44;10318047;28;20054;-76
2022/01/01 08:16:06;;;;;;;30.08;14.40;;;;;;;8.80;100.00;95085.59;10301996;28;20026;-77
2022/01/01 08:21:06;;;;;;;22.63;11.30;;;;;;;9.77;100.00;95080.19;10341680;28;20125;-78
2022/01/01 08:26:07;;;;;;;19.30;9.68;;;;;;;10.19;100.00;95089.28;10358898;28;20389;-77
2022/01/01 08:31:08;;;;;;;13.10;5.63;;;;;;;10.45;100.00;95079.44;10316971;28;20516;-75
2022/01/01 08:36:10;;;;;;;9.55;4.32;;;;;;;10.64;100.00;95081.69;10300165;28;20636;-72
2022/01/01 08:41:11;;;;;;;7.22;3.38;;;;;;;11.15;100.00;95079.09;10319467;28;20379;-73
2022/01/01 08:46:11;;;;;;;9.45;3.65;;;;;;;11.91;100.00;95077.41;10340455;28;20526;-77
2022/01/01 08:51:17;;;;;;;5.80;2.78;;;;;;;12.59;100.00;95086.09;10350244;28;20036;-74
2022/01/01 08:56:18;;;;;;;5.30;2.33;;;;;;;13.55;100.00;95093.06;10315243;28;20034;-76
2022/01/01 09:01:19;;;;;;;4.80;1.90;;;;;;;14.02;100.00;95088.84;10301322;28;20034;-72
2022/01/01 09:06:20;;;;;;;3.22;1.60;;;;;;;14.50;100.00;95091.56;10300554;28;20019;-77
2022/01/01 09:11:22;;;;;;;4.15;1.63;;;;;;;14.63;98.74;95100.09;10317019;28;20030;-76
2022/01/01 09:16:29;;;;;;;4.80;1.85;;;;;;;14.33;98.26;95099.31;10340980;28;20029;-74
2022/01/01 09:21:29;;;;;;;3.70;1.40;;;;;;;14.15;100.00;95095.47;10347712;28;20497;-79
2022/01/01 09:26:30;;;;;;;3.35;1.90;;;;;;;15.09;93.80;95085.94;10347920;28;20137;-73
2022/01/01 09:31:31;;;;;;;3.30;1.80;;;;;;;15.12;85.88;95101.59;10347803;28;20132;-77
2022/01/01 09:36:32;;;;;;;3.00;1.65;;;;;;;15.49;87.25;95099.97;10331401;28;20082;-74
2022/01/01 09:41:33;;;;;;;3.20;1.80;;;;;;;15.97;83.09;95115.19;10346920;28;20030;-78
2022/01/01 09:46:37;;;;;;;3.05;1.67;;;;;;;16.07;76.92;95116.91;10347560;28;20033;-78
2022/01/01 09:51:40;;;;;;;3.95;2.25;;;;;;;15.57;79.11;95128.28;10343686;28;20113;-73
2022/01/01 09:56:40;;;;;;;4.68;1.73;;;;;;;15.44;79.29;95124.41;10346678;28;20064;-78
2022/01/01 10:01:41;;;;;;;2.90;1.98;;;;;;;15.09;80.12;95131.97;10328108;28;20149;-72
2022/01/01 10:06:42;;;;;;;6.38;2.42;;;;;;;14.35;85.63;95141.19;10346077;28;20030;-74
2022/01/01 10:11:42;;;;;;;3.05;2.17;;;;;;;13.96;89.84;95141.34;10324467;28;20113;-76
2022/01/01 10:16:44;;;;;;;2.97;1.67;;;;;;;13.67;90.09;95145.63;10305308;28;20125;-77
2022/01/01 10:21:54;;;;;;;5.35;2.08;;;;;;;13.60;97.11;95147.03;10305956;28;20734;-75
2022/01/01 10:32:15;;;;;;;6.72;3.47;;;;;;;15.16;92.28;95120.78;10361401;28;20164;-77
2022/01/01 10:37:15;;;;;;;4.88;2.30;;;;;;;15.94;70.53;95113.06;10346190;28;20054;-76
2022/01/01 10:42:17;;;;;;;5.50;2.33;;;;;;;15.41;78.74;95108.75;10321509;28;20080;-77
2022/01/01 10:47:29;;;;;;;9.48;2.85;;;;;;;16.83;69.87;95104.88;10341374;28;20033;-76
2022/01/01 10:52:32;;;;;;;6.68;2.17;;;;;;;20.79;49.72;95081.94;10362297;28;20080;-78
2022/01/01 10:57:35;;;;;;;3.53;2.20;;;;;;;23.36;42.03;95070.50;10360365;28;20030;-79
2022/01/01 11:02:37;;;;;;;5.43;1.65;;;;;;;22.52;41.26;95066.31;10360339;28;20072;-73
2022/01/01 11:07:48;;;;;;;3.60;1.80;;;;;;;21.42;43.31;95070.28;10343933;28;20411;-73
2022/01/01 11:12:50;;;;;;;3.17;1.95;;;;;;;20.78;44.38;95075.69;10361000;28;20072;-78
2022/01/01 11:17:52;;;;;;;2.78;2.00;;;;;;;20.48;45.87;95072.13;10318946;28;20033;-74
2022/01/01 11:22:52;;;;;;;4.75;2.30;;;;;;;21.89;43.90;95072.78;10302977;28;20019;-72
2022/01/01 11:27:53;;;;;;;4.10;2.33;;;;;;;22.22;40.66;95066.47;10303098;28;20373;-73
2022/01/01 11:33:16;;;;;;;3.70;2.17;;;;;;;20.46;42.48;95066.19;10313646;28;20664;-78
2022/01/01 11:38:17;;;;;;;5.70;2.80;;;;;;;17.84;50.28;95072.16;10301475;28;20142;-73
2022/01/01 11:43:45;;;;;;;4.05;2.20;;;;;;;16.32;56.67;95087.72;10301162;28;20117;-79
2022/01/01 11:48:56;;;;;;;5.43;3.33;;;;;;;14.88;68.73;95107.06;10325814;28;20040;-75
2022/01/01 11:54:14;;;;;;;4.85;2.85;;;;;;;13.73;92.82;95100.47;10359323;28;20734;-77
2022/01/01 11:59:39;;;;;;;7.68;4.07;;;;;;;12.63;100.00;95114.13;10357106;28;20056;-73
2022/01/01 12:04:42;;;;;;;6.20;3.70;;;;;;;11.60;100.00;95096.28;10347423;28;20081;-76
2022/01/01 12:10:07;;;;;;;4.53;3.10;;;;;;;10.79;100.00;95097.84;10297127;28;20445;-77
2022/01/01 12:15:19;;;;;;;11.63;5.20;;;;;;;10.56;100.00;95086.50;10300512;28;20053;-74
2022/01/01 12:20:22;;;;;;;11.00;4.63;;;;;;;10.74;100.00;95085.22;10301465;28;20085;-72
2022/01/01 12:25:29;;;;;;;9.32;5.22;;;;;;;10.94;100.00;95079.06;10318049;28;20026;-74
2022/01/01 12:30:32;;;;;;;11.68;5.75;;;;;;;11.20;100.00;95075.56;10300554;28;20030;-72
2022/01/01 12:35:49;;;;;;;9.15;5.38;;;;;;;10.66;100.00;95088.41;10285337;28;20039;-69
2022/01/01 12:41:03;;;;;;;12.65;6.05;;;;;;;10.57;100.00;95087.31;10300875;28;20532;-74
2022/01/01 12:46:03;;;;;;;15.18;5.28;;;;;;;10.59;100.00;95082.44;10321813;28;20057;-72
2022/01/01 12:51:08;;;;;;;10.07;5.50;;;;;;;10.52;100.00;95082.72;10359354;28;20465;-69
2022/01/01 12:56:13;;;;;;;9.95;5.50;;;;;;;10.31;100.00;95089.88;10362224;28;20029;-70
2022/01/01 13:01:25;;;;;;;9.48;5.13;;;;;;;9.99;100.00;95084.59;10338727;28;20035;-70
2022/01/01 13:06:34;;;;;;;17.00;6.53;;;;;;;9.84;100.00;95077.28;10308723;28;20101;-75
2022/01/01 13:11:37;;;;;;;14.23;7.70;;;;;;;9.94;100.00;95076.53;10323972;28;20033;-72
2022/01/01 13:16:38;;;;;;;14.63;7.13;;;;;;;9.46;100.00;95076.47;10325078;28;20034;-75
2022/01/01 13:21:38;;;;;;;14.80;6.93;;;;;;;9.52;100.00;95080.84;10307310;28;20038;-72
2022/01/01 13:26:41;;;;;;;14.98;7.28;;;;;;;9.56;100.00;95088.09;10324472;28;20101;-73
2022/01/01 13:31:43;;;;;;;13.35;6.72;;;;;;;9.38;100.00;95097.38;10306749;28;20041;-76
2022/01/01 13:36:44;;;;;;;12.15;7.57;;;;;;;9.60;100.00;95112.56;10322606;28;20527;-72
2022/01/01 13:41:47;;;;;;;11.63;6.47;;;;;;;9.81;100.00;95116.19;10323346;28;20026;-72
2022/01/01 13:46:59;;;;;;;12.10;6.97;;;;;;;9.54;100.00;95116.25;10333547;28;20041;-74
2022/01/01 13:51:59;;;;;;;11.80;6.35;;;;;;;9.38;100.00;95128.75;10305395;28;20448;-72
2022/01/01 13:57:05;;;;;;;16.33;6.87;;;;;;;9.38;100.00;95131.44;10324674;28;20038;-73
2022/01/01 14:02:13;;;;;;;12.75;6.63;;;;;;;9.37;100.00;95135.97;10306232;28;20269;-71
2022/01/01 14:07:16;;;;;;;13.32;6.82;;;;;;;9.28;100.00;95124.13;10320552;28;20448;-71
2022/01/01 14:12:16;;;;;;;11.65;6.75;;;;;;;9.26;100.00;95136.16;10306117;28;20064;-72
2022/01/01 14:17:17;;;;;;;13.40;7.55;;;;;;;9.32;100.00;95138.63;10321488;28;20220;-75
2022/01/01 14:22:17;;;;;;;11.48;7.22;;;;;;;9.30;100.00;95130.00;10321888;28;20117;-75
2022/01/01 14:27:18;;;;;;;13.57;6.60;;;;;;;9.23;100.00;95151.66;10322233;28;20125;-71
2022/01/01 14:32:19;;;;;;;11.38;6.35;;;;;;;9.14;100.00;95155.91;10339210;28;20022;-78
2022/01/01 14:37:21;;;;;;;14.45;7.72;;;;;;;9.12;100.00;95165.25;10362424;28;20056;-72
2022/01/01 14:42:21;;;;;;;12.27;6.93;;;;;;;9.12;100.00;95158.00;10333718;28;20022;-73
2022/01/01 14:47:32;;;;;;;14.55;7.43;;;;;;;9.06;100.00;95165.19;10334676;28;20034;-71
2022/01/01 14:52:42;;;;;;;9.85;5.85;;;;;;;9.08;100.00;95162.25;10302827;28;20548;-74
2022/01/01 14:57:47;;;;;;;9.07;6.13;;;;;;;9.07;100.00;95161.47;10303213;28;20032;-76
2022/01/01 15:02:47;;;;;;;11.30;6.28;;;;;;;9.05;100.00;95176.97;10320466;28;20081;-72
2022/01/01 15:07:52;;;;;;;12.13;6.05;;;;;;;9.10;100.00;95183.44;10320317;28;20088;-73
2022/01/01 15:12:53;;;;;;;12.07;6.60;;;;;;;9.18;100.00;95189.19;10303343;28;20030;-73
2022/01/01 15:17:56;;;;;;;9.95;5.95;;;;;;;9.21;100.00;95188.69;10303649;28;20614;-71
2022/01/01 15:23:05;;;;;;;12.50;6.05;;;;;;;9.26;100.00;95187.91;10332618;28;20029;-71
2022/01/01 15:28:06;;;;;;;13.05;6.03;;;;;;;9.33;100.00;95187.72;10326667;28;20061;-70
2022/01/01 15:33:31;;;;;;;12.05;6.10;;;;;;;9.02;100.00;95188.19;10343566;28;20404;-71
2022/01/01 15:38:37;;;;;;;13.48;6.72;;;;;;;8.99;100.00;95204.00;10318619;28;20516;-76
2022/01/01 15:43:38;;;;;;;10.38;6.63;;;;;;;9.05;100.00;95194.94;10316547;28;20389;-72
2022/01/01 15:48:39;;;;;;;13.25;7.35;;;;;;;8.97;100.00;95195.38;10357431;28;20034;-70
2022/01/01 15:53:41;;;;;;;11.45;6.65;;;;;;;8.92;100.00;95212.22;10358264;28;20022;-76
2022/01/01 15:58:52;;;;;;;11.43;6.50;;;;;;;8.80;100.00;95208.88;10343008;28;20103;-75
2022/01/01 16:04:04;;;;;;;11.93;7.07;;;;;;;8.68;100.00;95212.50;10317158;28;20022;-76
2022/01/01 16:09:06;;;;;;;13.30;7.55;;;;;;;8.49;100.00;95197.78;10301716;28;20142;-72
2022/01/01 16:14:13;;;;;;;10.88;6.75;;;;;;;8.46;100.00;95209.00;10301900;28;20030;-71
2022/01/01 16:19:17;;;;;;;10.40;6.63;;;;;;;8.42;100.00;95207.84;10317479;28;20022;-70
2022/01/01 16:24:18;;;;;;;14.18;6.35;;;;;;;8.33;100.00;95213.63;10317496;28;20433;-74
2022/01/01 16:29:19;;;;;;;13.00;7.03;;;;;;;8.33;100.00;95228.84;10318087;28;20141;-71
2022/01/01 16:34:22;;;;;;;15.00;7.45;;;;;;;8.29;100.00;95225.88;10317183;28;20174;-77
2022/01/01 16:39:23;;;;;;;12.88;7.25;;;;;;;8.26;100.00;95237.09;10317075;28;20128;-79
2022/01/01 16:44:36;;;;;;;14.88;9.23;;;;;;;8.30;100.00;95240.88;10322706;28;20119;-72
2022/01/01 16:49:39;;;;;;;12.90;6.90;;;;;;;8.30;100.00;95237.38;10328489;28;20038;-71
2022/01/01 16:54:41;;;;;;;17.48;7.45;;;;;;;8.21;100.00;95248.50;10300830;28;20027;-72
2022/01/01 16:59:51;;;;;;;11.50;7.30;;;;;;;8.29;100.00;95254.50;10300596;28;20427;-74
2022/01/01 17:05:04;;;;;;;16.45;7.53;;;;;;;8.18;100.00;95259.72;10300447;28;20057;-71
2022/01/01 17:10:08;;;;;;;16.67;8.27;;;;;;;8.23;100.00;95268.88;10302329;28;20030;-71
2022/01/01 17:15:09;;;;;;;11.90;7.78;;;;;;;8.23;100.00;95285.75;10303330;28;20025;-71
2022/01/01 17:20:10;;;;;;;17.10;9.13;;;;;;;8.22;100.00;95292.19;10295074;28;20108;-71
2022/01/01 17:25:13;;;;;;;13.82;6.95;;;;;;;8.06;100.00;95298.34;10342543;28;20026;-70
2022/01/01 17:30:17;;;;;;;11.30;6.93;;;;;;;8.13;100.00;95296.31;10324679;28;20030;-71
2022/01/01 17:35:36;;;;;;;11.55;6.32;;;;;;;8.15;100.00;95304.91;10329256;28;20108;-75
2022/01/01 17:40:40;;;;;;;13.80;7.13;;;;;;;8.07;100.00;95294.63;10319857;28;20042;-74
2022/01/01 17:45:42;;;;;;;11.77;6.25;;;;;;;8.09;100.00;95305.88;10323002;28;20049;-75
2022/01/01 17:50:44;;;;;;;14.38;7.68;;;;;;;8.12;100.00;95310.75;10349113;28;20042;-74
2022/01/01 17:55:48;;;;;;;13.40;6.97;;;;;;;8.07;100.00;95326.75;10346138;28;20436;-71
2022/01/01 18:00:52;;;;;;;13.25;8.25;;;;;;;8.08;100.00;95331.84;10344796;28;20447;-75
2022/01/01 18:05:54;;;;;;;16.33;7.45;;;;;;;8.10;100.00;95332.41;10346386;28;20022;-75
2022/01/01 18:10:59;;;;;;;14.68;6.53;;;;;;;8.19;100.00;95340.84;10328556;28;20025;-70
2022/01/01 18:16:00;;;;;;;13.32;6.35;;;;;;;8.35;100.00;95339.25;10345839;28;20054;-71
2022/01/01 18:21:00;;;;;;;10.80;5.97;;;;;;;8.37;100.00;95339.78;10343057;28;20113;-72
2022/01/01 18:26:03;;;;;;;11.20;6.32;;;;;;;8.35;100.00;95345.41;10321482;28;20034;-71
2022/01/01 18:31:06;;;;;;;11.45;7.30;;;;;;;8.33;100.00;95342.16;10304362;28;20259;-72
2022/01/01 18:36:09;;;;;;;11.30;6.55;;;;;;;8.30;100.00;95348.00;10320707;28;20660;-71
2022/01/01 18:41:14;;;;;;;12.57;7.15;;;;;;;8.38;100.00;95346.78;10291580;28;20484;-75
2022/01/01 18:46:15;;;;;;;13.55;6.70;;;;;;;8.35;100.00;95364.13;10326691;28;20445;-72
2022/01/01 18:51:22;;;;;;;14.52;7.50;;;;;;;8.52;100.00;95366.03;10340042;28;20037;-73
2022/01/01 18:56:26;;;;;;;12.00;7.28;;;;;;;8.40;100.00;95368.78;10304252;28;20092;-78
2022/01/01 19:01:38;;;;;;;10.27;6.35;;;;;;;8.31;100.00;95384.44;10304015;28;20105;-77
2022/01/01 19:06:42;;;;;;;12.93;6.80;;;;;;;8.38;100.00;95386.94;10319909;28;20456;-74
2022/01/01 19:11:54;;;;;;;13.57;7.25;;;;;;;8.37;100.00;95385.31;10308272;28;20041;-74
2022/01/01 19:16:57;;;;;;;12.52;7.63;;;;;;;8.27;100.00;95387.84;10344014;28;20108;-73
2022/01/01 19:21:59;;;;;;;12.93;7.28;;;;;;;8.33;100.00;95379.66;10336864;28;20489;-72
2022/01/01 19:27:00;;;;;;;11.32;6.35;;;;;;;8.21;100.00;95381.59;10320519;28;20037;-75
2022/01/01 19:32:04;;;;;;;20.02;7.35;;;;;;;8.17;100.00;95380.44;10332042;28;20030;-74
2022/01/01 19:37:04;;;;;;;11.13;6.47;;;;;;;8.18;100.00;95382.06;10454169;22;20053;-72
2022/01/01 19:42:12;;;;;;;10.82;6.97;;;;;;;8.09;100.00;95380.84;10380862;28;20045;-73
2022/01/01 19:47:15;;;;;;;12.98;7.07;;;;;;;8.03;100.00;95372.72;10379627;28;20179;-71
2022/01/01 19:52:16;;;;;;;15.45;7.65;;;;;;;8.02;100.00;95380.97;10382312;28;20030;-74
2022/01/01 19:57:16;;;;;;;13.07;7.65;;;;;;;8.03;100.00;95378.06;10422629;28;20036;-75
2022/01/01 20:02:17;;;;;;;12.88;8.25;;;;;;;7.96;100.00;95388.13;10422399;28;20025;-68
2022/01/01 20:07:17;;;;;;;12.50;7.55;;;;;;;7.83;100.00;95397.25;10423364;28;20049;-76
2022/01/01 20:12:18;;;;;;;12.13;7.28;;;;;;;7.85;100.00;95397.00;10423175;28;20486;-71
2022/01/01 20:17:18;;;;;;;12.00;7.10;;;;;;;7.78;100.00;95391.78;10422946;28;20029;-74
2022/01/01 20:22:20;;;;;;;12.25;6.57;;;;;;;7.86;100.00;95390.63;10422944;28;20025;-76
2022/01/01 20:27:20;;;;;;;13.48;7.28;;;;;;;7.67;100.00;95382.78;10422532;28;20033;-73
2022/01/01 20:32:21;;;;;;;14.98;6.50;;;;;;;7.73;100.00;95393.56;10423003;28;20029;-75
2022/01/01 20:37:22;;;;;;;15.10;7.97;;;;;;;7.66;100.00;95394.53;10422424;28;20052;-73
2022/01/01 20:42:22;;;;;;;13.00;7.78;;;;;;;7.63;100.00;95394.19;10441695;28;20114;-73
2022/01/01 20:47:23;;;;;;;11.98;7.05;;;;;;;7.60;100.00;95403.50;10399334;28;20021;-72
2022/01/01 20:52:26;;;;;;;13.20;8.23;;;;;;;7.57;100.00;95400.50;10392519;28;20033;-81
2022/01/01 20:57:27;;;;;;;15.90;7.75;;;;;;;7.60;100.00;95400.81;10442896;28;20033;-75
2022/01/01 21:02:36;;;;;;;11.25;6.85;;;;;;;7.60;100.00;95400.00;10421094;28;20072;-78
2022/01/01 21:07:37;;;;;;;;;;;;;;;7.62;100.00;95404.09;10406905;28;20479;-76
2022/01/01 21:12:41;;;;;;;13.73;7.63;;;;;;;7.61;100.00;95402.44;10448157;28;19919;-77
2022/01/01 21:17:42;;;;;;;12.63;6.80;;;;;;;7.68;100.00;95411.13;10429345;28;20540;-80
2022/01/01 21:22:45;;;;;;;13.18;8.02;;;;;;;7.64;100.00;95426.03;10432328;28;20449;-80
2022/01/01 21:27:46;;;;;;;15.65;7.68;;;;;;;7.57;100.00;95422.69;10429660;28;20082;-75
2022/01/01 21:32:47;;;;;;;15.13;8.55;;;;;;;7.65;100.00;95427.69;10432489;28;20083;-71
2022/01/01 21:37:47;;;;;;;13.32;7.80;;;;;;;7.69;100.00;95436.06;10431167;28;20118;-78
2022/01/01 21:42:48;;;;;;;11.63;7.32;;;;;;;7.70;100.00;95443.00;10434300;28;20029;-75
2022/01/01 21:47:49;;;;;;;15.05;7.90;;;;;;;7.84;100.00;95448.91;10416147;28;20040;-83
2022/01/01 21:52:51;;;;;;;13.80;7.15;;;;;;;7.97;100.00;95451.31;10431721;28;20554;-78
2022/01/01 21:57:52;;;;;;;12.73;7.78;;;;;;;8.01;100.00;95443.63;10446579;28;20036;-75
2022/01/01 22:02:53;;;;;;;13.25;8.15;;;;;;;8.16;100.00;95441.22;10433813;28;20028;-75
2022/01/01 22:07:53;;;;;;;12.90;8.38;;;;;;;8.23;100.00;95445.59;10430225;28;20029;-79
2022/01/01 22:12:54;;;;;;;13.10;7.90;;;;;;;8.38;100.00;95452.03;10432158;28;20025;-82
2022/01/01 22:17:55;;;;;;;15.70;8.38;;;;;;;8.35;100.00;95454.41;10431899;28;20422;-77
2022/01/01 22:22:55;;;;;;;12.93;7.35;;;;;;;8.39;100.00;95452.88;10429856;28;20063;-79
2022/01/01 22:27:56;;;;;;;11.50;7.65;;;;;;;8.37;100.00;95463.81;10431517;28;20036;-74
2022/01/01 22:32:56;;;;;;;11.30;7.28;;;;;;;8.48;100.00;95450.63;10430392;28;20607;-81
2022/01/01 22:37:57;;;;;;;13.25;7.90;;;;;;;8.37;100.00;95447.75;10430284;28;20561;-76
2022/01/01 22:42:57;;;;;;;12.95;7.88;;;;;;;8.38;100.00;95456.59;10429341;28;20033;-80
2022/01/01 22:47:57;;;;;;;16.60;8.33;;;;;;;8.36;100.00;95459.50;10430661;28;20117;-77
2022/01/01 22:52:58;;;;;;;13.60;7.55;;;;;;;8.30;100.00;95467.69;10428832;28;20291;-81
2022/01/01 22:57:58;;;;;;;13.90;7.82;;;;;;;8.20;100.00;95460.28;10429978;28;20024;-76
2022/01/01 23:03:03;;;;;;;13.43;7.60;;;;;;;8.22;100.00;95458.19;10448446;28;20032;-78
2022/01/01 23:08:03;;;;;;;11.30;7.43;;;;;;;8.10;100.00;95460.91;10427060;28;20025;-75
2022/01/01 23:13:04;;;;;;;13.57;7.45;;;;;;;8.11;100.00;95464.41;10427983;28;20037;-73
2022/01/01 23:18:24;;;;;;;15.13;7.90;;;;;;;7.93;100.00;95455.50;10427395;28;20445;-81